createdAt,value
2023-08-15T00:00:56.337Z,19.13
2023-08-15T00:02:57.941Z,19.15
2023-08-15T00:04:59.550Z,19.04
2023-08-15T00:07:21.395Z,19.03
2023-08-15T00:09:23.199Z,18.98
2023-08-15T00:11:24.810Z,18.97
2023-08-15T00:13:26.426Z,18.95
2023-08-15T00:15:27.996Z,18.99
2023-08-15T00:17:29.578Z,18.98
2023-08-15T00:19:31.167Z,18.92
2023-08-15T00:21:32.919Z,18.98
2023-08-15T00:23:35.013Z,18.92
2023-08-15T00:25:36.635Z,18.96
2023-08-15T00:27:38.233Z,18.88
2023-08-15T00:29:39.876Z,18.88
2023-08-15T00:31:42.426Z,18.91
2023-08-15T00:33:44.032Z,18.92
2023-08-15T00:35:45.663Z,18.93
2023-08-15T00:37:47.286Z,18.89
2023-08-15T00:39:48.999Z,18.81
2023-08-15T00:41:50.550Z,18.82
2023-08-15T00:43:52.100Z,18.80
2023-08-15T00:45:54.029Z,18.82
2023-08-15T00:47:55.939Z,18.84
2023-08-15T00:49:58.718Z,18.85
2023-08-15T00:52:00.467Z,18.83
2023-08-15T00:54:02.292Z,18.76
2023-08-15T00:56:05.126Z,18.81
2023-08-15T00:58:07.066Z,18.79
2023-08-15T01:00:09.383Z,18.78
2023-08-15T01:02:11.768Z,18.79
2023-08-15T01:04:15.681Z,18.74
2023-08-15T01:06:17.287Z,18.72
2023-08-15T01:08:19.146Z,18.68
2023-08-15T01:10:20.737Z,18.60
2023-08-15T01:12:44.338Z,18.57
2023-08-15T01:14:53.882Z,18.63
2023-08-15T01:16:57.215Z,18.68
2023-08-15T01:19:06.275Z,18.64
2023-08-15T01:21:08.903Z,18.55
2023-08-15T01:23:13.753Z,18.58
2023-08-15T01:25:15.864Z,18.49
2023-08-15T01:27:20.489Z,18.53
2023-08-15T01:29:22.509Z,18.46
2023-08-15T01:31:33.992Z,18.45
2023-08-15T01:33:40.836Z,18.36
2023-08-15T01:35:51.871Z,18.42
2023-08-15T01:38:19.483Z,18.46
2023-08-15T01:40:23.166Z,18.52
2023-08-15T01:42:26.709Z,18.50
2023-08-15T01:44:30.428Z,18.53
2023-08-15T01:46:32.287Z,18.50
2023-08-15T01:48:39.242Z,18.36
2023-08-15T01:50:40.984Z,18.34
2023-08-15T01:52:43.842Z,18.39
2023-08-15T01:54:45.519Z,18.39
2023-08-15T01:56:47.160Z,18.38
2023-08-15T01:58:48.924Z,18.40
2023-08-15T02:00:50.584Z,18.40
2023-08-15T02:02:52.920Z,18.42
2023-08-15T02:04:54.674Z,18.40
2023-08-15T02:06:56.214Z,18.47
2023-08-15T02:08:57.941Z,18.43
2023-08-15T02:10:59.671Z,18.32
2023-08-15T02:13:01.883Z,18.30
2023-08-15T02:15:05.768Z,18.30
2023-08-15T02:17:08.134Z,18.30
2023-08-15T02:19:09.953Z,18.30
2023-08-15T02:21:11.495Z,18.31
2023-08-15T02:23:13.629Z,18.32
2023-08-15T02:25:15.205Z,18.32
2023-08-15T02:27:16.797Z,18.32
2023-08-15T02:29:18.534Z,18.28
2023-08-15T02:31:21.048Z,18.22
2023-08-15T02:33:22.620Z,18.19
2023-08-15T02:35:24.222Z,18.27
2023-08-15T02:37:26.204Z,18.28
2023-08-15T02:39:27.740Z,18.22
2023-08-15T02:41:29.731Z,18.20
2023-08-15T02:43:31.330Z,18.23
2023-08-15T02:45:34.746Z,18.23
2023-08-15T02:47:36.660Z,18.26
2023-08-15T02:49:39.742Z,18.26
2023-08-15T02:51:41.340Z,18.24
2023-08-15T02:53:42.999Z,18.25
2023-08-15T02:55:44.635Z,18.22
2023-08-15T02:57:46.421Z,18.22
2023-08-15T02:59:48.162Z,18.19
2023-08-15T03:01:50.340Z,18.17
2023-08-15T03:03:52.488Z,18.21
2023-08-15T03:05:54.029Z,18.19
2023-08-15T03:07:55.604Z,18.19
2023-08-15T03:09:57.309Z,18.21
2023-08-15T03:11:59.361Z,18.11
2023-08-15T03:14:00.908Z,18.06
2023-08-15T03:16:02.566Z,18.03
2023-08-15T03:18:06.777Z,18.10
2023-08-15T03:20:10.590Z,18.09
2023-08-15T03:22:12.686Z,18.08
2023-08-15T03:24:14.747Z,18.17
2023-08-15T03:26:16.645Z,18.17
2023-08-15T03:28:18.183Z,18.05
2023-08-15T03:30:20.179Z,17.97
2023-08-15T03:32:22.151Z,17.94
2023-08-15T03:34:23.751Z,18.01
2023-08-15T03:36:25.806Z,18.07
2023-08-15T03:38:28.079Z,18.05
2023-08-15T03:40:29.685Z,18.03
2023-08-15T03:42:31.298Z,17.94
2023-08-15T03:44:33.898Z,17.90
2023-08-15T03:46:35.503Z,17.95
2023-08-15T03:48:37.499Z,17.98
2023-08-15T03:50:39.602Z,18.03
2023-08-15T03:52:41.170Z,18.11
2023-08-15T03:54:43.229Z,18.13
2023-08-15T03:56:45.689Z,17.89
2023-08-15T03:58:47.244Z,17.58
2023-08-15T04:00:50.055Z,17.60
2023-08-15T04:02:52.434Z,17.67
2023-08-15T04:04:54.010Z,17.70
2023-08-15T04:06:55.538Z,17.77
2023-08-15T04:08:57.129Z,17.82
2023-08-15T04:10:58.906Z,17.91
2023-08-15T04:13:00.460Z,17.94
2023-08-15T04:15:01.989Z,18.03
2023-08-15T04:17:06.139Z,18.07
2023-08-15T04:19:08.740Z,18.10
2023-08-15T04:21:13.214Z,18.19
2023-08-15T04:23:15.465Z,18.22
2023-08-15T04:25:17.555Z,18.28
2023-08-15T04:27:19.321Z,18.35
2023-08-15T04:29:21.171Z,18.40
2023-08-15T04:31:23.081Z,18.49
2023-08-15T04:33:24.667Z,18.56
2023-08-15T04:35:30.069Z,18.67
2023-08-15T04:37:32.333Z,18.75
2023-08-15T04:39:35.081Z,18.64
2023-08-15T04:41:36.735Z,18.71
2023-08-15T04:43:38.421Z,18.76
2023-08-15T04:45:44.816Z,18.65
2023-08-15T04:47:46.847Z,18.67
2023-08-15T04:49:50.182Z,18.73
2023-08-15T04:51:51.916Z,18.81
2023-08-15T04:53:53.528Z,18.83
2023-08-15T04:55:55.128Z,18.86
2023-08-15T04:57:56.659Z,18.81
2023-08-15T04:59:58.312Z,18.84
2023-08-15T05:01:59.893Z,18.92
2023-08-15T05:04:01.498Z,19.09
2023-08-15T05:06:04.837Z,19.23
2023-08-15T05:08:07.765Z,19.45
2023-08-15T05:10:10.038Z,19.61
2023-08-15T05:12:14.337Z,19.84
2023-08-15T05:14:17.338Z,19.93
2023-08-15T05:16:20.675Z,20.03
2023-08-15T05:18:22.373Z,20.09
2023-08-15T05:20:24.034Z,20.18
2023-08-15T05:22:25.863Z,20.29
2023-08-15T05:24:27.630Z,20.34
2023-08-15T05:26:30.238Z,20.35
2023-08-15T05:28:31.848Z,20.40
2023-08-15T05:30:35.086Z,20.42
2023-08-15T05:32:36.724Z,20.42
2023-08-15T05:34:38.434Z,20.39
2023-08-15T05:36:40.489Z,20.38
2023-08-15T05:38:42.208Z,20.53
2023-08-15T05:40:44.063Z,20.58
2023-08-15T05:42:45.648Z,20.56
2023-08-15T05:44:48.106Z,20.62
2023-08-15T05:46:49.675Z,20.64
2023-08-15T05:48:51.288Z,20.64
2023-08-15T05:50:52.966Z,20.63
2023-08-15T05:52:54.650Z,20.72
2023-08-15T05:54:56.798Z,20.73
2023-08-15T05:56:58.591Z,20.71
2023-08-15T05:59:00.180Z,20.81
2023-08-15T06:01:02.282Z,20.94
2023-08-15T06:03:04.229Z,21.08
2023-08-15T06:05:06.483Z,21.23
2023-08-15T06:07:08.222Z,21.45
2023-08-15T06:09:09.864Z,21.66
2023-08-15T06:11:11.573Z,21.76
2023-08-15T06:13:13.099Z,21.90
2023-08-15T06:15:15.411Z,22.01
2023-08-15T06:17:18.247Z,22.07
2023-08-15T06:19:19.883Z,22.19
2023-08-15T06:21:21.484Z,22.28
2023-08-15T06:23:23.072Z,22.36
2023-08-15T06:25:24.691Z,22.39
2023-08-15T06:27:26.372Z,22.55
2023-08-15T06:29:28.041Z,22.58
2023-08-15T06:31:29.704Z,22.68
2023-08-15T06:33:31.422Z,22.86
2023-08-15T06:35:33.022Z,22.71
2023-08-15T06:37:34.631Z,22.69
2023-08-15T06:39:36.691Z,22.67
2023-08-15T06:41:38.627Z,22.64
2023-08-15T06:43:41.020Z,22.78
2023-08-15T06:45:42.679Z,22.82
2023-08-15T06:47:44.272Z,22.85
2023-08-15T06:49:45.826Z,23.07
2023-08-15T06:51:47.388Z,23.29
2023-08-15T06:53:52.324Z,23.47
2023-08-15T06:55:53.908Z,23.54
2023-08-15T06:57:55.726Z,23.78
2023-08-15T06:59:57.360Z,23.99
2023-08-15T07:01:58.924Z,24.15
2023-08-15T07:04:01.164Z,24.31
2023-08-15T07:06:04.936Z,24.43
2023-08-15T07:08:07.491Z,24.50
2023-08-15T07:10:11.203Z,24.38
2023-08-15T07:12:12.910Z,24.43
2023-08-15T07:14:14.467Z,24.53
2023-08-15T07:16:16.402Z,24.65
2023-08-15T07:18:19.890Z,24.30
2023-08-15T07:20:21.609Z,24.23
2023-08-15T07:22:23.613Z,24.31
2023-08-15T07:24:25.729Z,24.54
2023-08-15T07:26:27.927Z,24.77
2023-08-15T07:28:29.567Z,25.00
2023-08-15T07:30:31.126Z,25.11
2023-08-15T07:32:36.279Z,25.30
2023-08-15T07:34:38.087Z,25.32
2023-08-15T07:36:40.306Z,25.42
2023-08-15T07:38:41.971Z,25.57
2023-08-15T07:40:43.615Z,25.63
2023-08-15T07:42:45.193Z,25.76
2023-08-15T07:44:46.740Z,25.91
2023-08-15T07:46:48.313Z,26.06
2023-08-15T07:48:50.013Z,26.18
2023-08-15T07:50:51.848Z,26.15
2023-08-15T07:52:53.909Z,26.21
2023-08-15T07:54:55.532Z,26.42
2023-08-15T07:56:57.071Z,26.57
2023-08-15T07:58:59.008Z,26.76
2023-08-15T08:01:00.545Z,26.88
2023-08-15T08:03:02.319Z,27.09
2023-08-15T08:05:07.522Z,27.27
2023-08-15T08:07:09.107Z,27.30
2023-08-15T08:09:10.813Z,27.47
2023-08-15T08:11:12.834Z,27.21
2023-08-15T08:13:17.825Z,26.79
2023-08-15T08:15:19.682Z,26.96
2023-08-15T08:17:22.104Z,26.98
2023-08-15T08:19:23.611Z,27.04
2023-08-15T08:21:26.259Z,27.13
2023-08-15T08:23:27.940Z,27.27
2023-08-15T08:25:29.576Z,26.97
2023-08-15T08:27:31.173Z,26.99
2023-08-15T08:29:32.985Z,27.37
2023-08-15T08:31:34.448Z,27.50
2023-08-15T08:33:36.188Z,27.77
2023-08-15T08:35:38.001Z,28.09
2023-08-15T08:37:39.800Z,28.39
2023-08-15T08:39:41.367Z,28.63
2023-08-15T08:41:43.170Z,28.81
2023-08-15T08:43:44.841Z,28.87
2023-08-15T08:45:52.023Z,28.96
2023-08-15T08:47:55.208Z,28.87
2023-08-15T08:49:58.500Z,29.01
2023-08-15T08:52:00.640Z,29.14
2023-08-15T08:54:02.241Z,29.25
2023-08-15T08:56:04.501Z,29.15
2023-08-15T08:58:06.286Z,29.40
2023-08-15T09:00:10.574Z,29.31
2023-08-15T09:02:20.403Z,29.37
2023-08-15T09:04:22.576Z,29.58
2023-08-15T09:06:27.256Z,29.81
2023-08-15T09:08:28.827Z,30.02
2023-08-15T09:10:30.354Z,30.13
2023-08-15T09:12:40.109Z,30.24
2023-08-15T09:14:41.968Z,30.39
2023-08-15T09:16:51.636Z,30.34
2023-08-15T09:18:53.220Z,30.24
2023-08-15T09:20:54.883Z,29.95
2023-08-15T09:22:57.456Z,29.93
2023-08-15T09:24:59.095Z,29.91
2023-08-15T09:27:05.132Z,30.05
2023-08-15T09:29:07.123Z,29.99
2023-08-15T09:31:10.865Z,29.80
2023-08-15T09:33:14.818Z,30.14
2023-08-15T09:35:18.912Z,30.37
2023-08-15T09:37:22.597Z,30.56
2023-08-15T09:39:24.504Z,30.65
2023-08-15T09:41:28.065Z,30.64
2023-08-15T09:43:30.973Z,30.79
2023-08-15T09:45:32.822Z,30.97
2023-08-15T09:47:37.746Z,31.08
2023-08-15T09:49:39.878Z,31.25
2023-08-15T09:51:41.933Z,30.98
2023-08-15T09:53:44.771Z,30.80
2023-08-15T09:55:47.175Z,30.66
2023-08-15T09:57:50.707Z,30.54
2023-08-15T09:59:52.323Z,30.38
2023-08-15T10:01:56.212Z,30.36
2023-08-15T10:03:59.360Z,30.25
2023-08-15T10:06:02.508Z,30.00
2023-08-15T10:08:04.877Z,29.90
2023-08-15T10:10:07.017Z,29.90
2023-08-15T10:12:10.898Z,29.87
2023-08-15T10:14:18.820Z,29.48
2023-08-15T10:16:20.749Z,29.44
2023-08-15T10:18:22.423Z,29.34
2023-08-15T10:20:24.241Z,29.09
2023-08-15T10:22:26.128Z,29.20
2023-08-15T10:24:30.179Z,29.01
2023-08-15T10:26:32.178Z,29.08
2023-08-15T10:28:36.955Z,29.56
2023-08-15T10:30:52.047Z,29.77
2023-08-15T10:32:54.284Z,29.86
2023-08-15T10:34:59.804Z,30.02
2023-08-15T10:37:30.947Z,30.25
2023-08-15T10:39:38.139Z,30.42
2023-08-15T10:41:39.798Z,30.66
2023-08-15T10:43:45.204Z,30.72
2023-08-15T10:45:53.789Z,30.75
2023-08-15T10:47:58.465Z,30.83
2023-08-15T10:50:00.245Z,30.67
2023-08-15T10:52:01.736Z,30.82
2023-08-15T10:54:06.262Z,31.13
2023-08-15T10:56:09.565Z,31.21
2023-08-15T10:58:12.066Z,31.26
2023-08-15T11:00:18.901Z,31.03
2023-08-15T11:02:20.670Z,30.85
2023-08-15T11:04:22.340Z,30.82
2023-08-15T11:06:23.821Z,30.57
2023-08-15T11:08:25.360Z,30.51
2023-08-15T11:10:26.958Z,30.05
2023-08-15T11:12:28.773Z,30.08
2023-08-15T11:14:30.442Z,29.70
2023-08-15T11:16:31.960Z,29.80
2023-08-15T11:18:33.759Z,29.66
2023-08-15T11:20:35.577Z,29.54
2023-08-15T11:22:37.543Z,29.63
2023-08-15T11:24:39.555Z,29.49
2023-08-15T11:26:41.590Z,29.33
2023-08-15T11:28:43.468Z,29.37
2023-08-15T11:30:45.376Z,29.50
2023-08-15T11:32:47.317Z,29.78
2023-08-15T11:34:48.990Z,29.99
2023-08-15T11:36:50.728Z,30.22
2023-08-15T11:38:52.900Z,30.17
2023-08-15T11:40:54.703Z,30.04
2023-08-15T11:42:56.351Z,29.76
2023-08-15T11:45:01.485Z,29.69
2023-08-15T11:47:03.305Z,29.84
2023-08-15T11:49:04.992Z,30.16
2023-08-15T11:51:06.735Z,30.50
2023-08-15T11:53:10.427Z,30.78
2023-08-15T11:55:12.425Z,31.17
2023-08-15T11:57:14.344Z,31.20
2023-08-15T11:59:20.323Z,30.93
2023-08-15T12:01:26.244Z,30.74
2023-08-15T12:03:28.484Z,30.68
2023-08-15T12:05:30.341Z,30.55
2023-08-15T12:07:31.925Z,30.56
2023-08-15T12:09:33.875Z,30.60
2023-08-15T12:11:36.559Z,30.55
2023-08-15T12:13:40.003Z,30.40
2023-08-15T12:15:41.688Z,30.13
2023-08-15T12:17:43.407Z,29.81
2023-08-15T12:19:44.998Z,29.48
2023-08-15T12:21:46.904Z,29.11
2023-08-15T12:23:48.564Z,28.92
2023-08-15T12:25:50.643Z,28.60
2023-08-15T12:27:52.111Z,28.38
2023-08-15T12:30:13.507Z,28.27
2023-08-15T12:32:16.538Z,27.67
2023-08-15T12:34:18.178Z,27.10
2023-08-15T12:36:20.109Z,26.83
2023-08-15T12:38:21.674Z,26.51
2023-08-15T12:42:31.080Z,25.95
2023-08-15T12:44:33.265Z,25.69
2023-08-15T12:46:34.778Z,25.66
2023-08-15T12:48:36.666Z,25.02
2023-08-15T12:50:39.302Z,24.75
2023-08-15T12:52:40.937Z,24.88
2023-08-15T12:54:42.709Z,25.10
2023-08-15T12:56:44.604Z,25.37
2023-08-15T12:58:46.227Z,25.58
2023-08-15T13:00:49.890Z,25.80
2023-08-15T13:02:53.130Z,26.15
2023-08-15T13:04:55.407Z,26.86
2023-08-15T13:06:57.832Z,27.31
2023-08-15T13:08:59.447Z,27.42
2023-08-15T13:11:02.181Z,27.28
2023-08-15T13:13:04.206Z,27.33
2023-08-15T13:15:07.313Z,27.34
2023-08-15T13:17:08.969Z,27.38
2023-08-15T13:19:10.476Z,27.24
2023-08-15T13:21:12.029Z,27.42
2023-08-15T13:23:13.674Z,27.55
2023-08-15T13:25:15.220Z,27.65
2023-08-15T13:27:17.382Z,27.76
2023-08-15T13:29:19.365Z,27.97
2023-08-15T13:31:20.991Z,28.34
2023-08-15T13:33:22.790Z,28.51
2023-08-15T13:35:24.673Z,28.61
2023-08-15T13:37:26.265Z,28.53
2023-08-15T13:39:28.073Z,28.38
2023-08-15T13:41:29.976Z,28.22
2023-08-15T13:43:34.397Z,28.44
2023-08-15T13:45:36.261Z,28.62
2023-08-15T13:47:39.566Z,28.89
2023-08-15T13:49:41.547Z,29.01
2023-08-15T13:51:43.654Z,28.87
2023-08-15T13:53:45.885Z,28.40
2023-08-15T13:55:47.499Z,27.96
2023-08-15T13:57:49.306Z,27.54
2023-08-15T13:59:50.949Z,27.22
2023-08-15T14:01:53.048Z,27.10
2023-08-15T14:03:55.919Z,26.80
2023-08-15T14:05:58.567Z,26.82
2023-08-15T14:08:00.319Z,27.22
2023-08-15T14:10:02.013Z,27.74
2023-08-15T14:12:04.528Z,28.09
2023-08-15T14:14:06.163Z,27.77
2023-08-15T14:16:07.822Z,27.61
2023-08-15T14:18:09.463Z,27.54
2023-08-15T14:20:11.433Z,27.80
2023-08-15T14:22:12.955Z,27.96
2023-08-15T14:24:14.800Z,27.90
2023-08-15T14:26:16.898Z,27.62
2023-08-15T14:28:18.960Z,27.57
2023-08-15T14:30:20.646Z,27.77
2023-08-15T14:32:22.365Z,27.73
2023-08-15T14:34:24.110Z,27.85
2023-08-15T14:36:25.767Z,28.17
2023-08-15T14:38:28.270Z,28.06
2023-08-15T14:40:30.130Z,27.78
2023-08-15T14:42:32.004Z,27.37
2023-08-15T14:44:35.416Z,27.03
2023-08-15T14:46:37.279Z,26.87
2023-08-15T14:48:39.133Z,26.71
2023-08-15T14:50:41.174Z,26.80
2023-08-15T14:52:44.213Z,26.84
2023-08-15T14:54:45.737Z,26.91
2023-08-15T14:56:47.461Z,26.77
2023-08-15T14:58:50.557Z,26.73
2023-08-15T15:00:52.252Z,26.36
2023-08-15T15:02:53.904Z,26.44
2023-08-15T15:04:55.683Z,26.47
2023-08-15T15:06:57.288Z,26.45
2023-08-15T15:08:59.309Z,26.93
2023-08-15T15:11:02.010Z,27.69
2023-08-15T15:13:04.359Z,28.46
2023-08-15T15:15:06.943Z,28.91
2023-08-15T15:17:08.571Z,29.22
2023-08-15T15:19:10.139Z,29.72
2023-08-15T15:21:11.767Z,30.01
2023-08-15T15:23:13.414Z,30.42
2023-08-15T15:25:15.412Z,30.31
2023-08-15T15:27:17.001Z,30.68
2023-08-15T15:29:19.045Z,30.88
2023-08-15T15:31:21.061Z,31.18
2023-08-15T15:33:22.984Z,31.20
2023-08-15T15:35:24.727Z,31.18
2023-08-15T15:37:26.330Z,31.43
2023-08-15T15:39:29.175Z,31.57
2023-08-15T15:41:31.027Z,31.55
2023-08-15T15:43:33.176Z,31.27
2023-08-15T15:45:37.164Z,30.77
2023-08-15T15:47:40.080Z,30.61
2023-08-15T15:49:41.961Z,30.19
2023-08-15T15:51:43.582Z,30.03
2023-08-15T15:53:45.186Z,29.66
2023-08-15T15:55:46.770Z,29.37
2023-08-15T15:57:48.838Z,29.10
2023-08-15T15:59:50.461Z,28.66
2023-08-15T16:01:52.760Z,28.54
2023-08-15T16:03:54.806Z,28.65
2023-08-15T16:05:56.388Z,28.42
2023-08-15T16:07:58.003Z,28.31
2023-08-15T16:09:59.563Z,28.10
2023-08-15T16:12:01.123Z,27.96
2023-08-15T16:14:02.683Z,27.76
2023-08-15T16:16:04.553Z,27.73
2023-08-15T16:18:06.467Z,27.69
2023-08-15T16:20:08.561Z,27.54
2023-08-15T16:22:10.187Z,27.23
2023-08-15T16:24:11.767Z,26.89
2023-08-15T16:26:13.373Z,26.75
2023-08-15T16:28:14.988Z,26.58
2023-08-15T16:30:18.756Z,26.17
2023-08-15T16:32:20.921Z,25.98
2023-08-15T16:34:23.084Z,25.91
2023-08-15T16:36:25.115Z,25.60
2023-08-15T16:38:26.645Z,25.63
2023-08-15T16:40:28.203Z,25.52
2023-08-15T16:42:29.768Z,25.51
2023-08-15T16:44:31.301Z,25.33
2023-08-15T16:46:33.239Z,25.08
2023-08-15T16:48:35.532Z,24.92
2023-08-15T16:50:38.693Z,24.87
2023-08-15T16:52:40.285Z,24.74
2023-08-15T16:54:41.863Z,24.67
2023-08-15T16:56:43.498Z,24.51
2023-08-15T16:58:46.620Z,24.64
2023-08-15T17:00:48.413Z,24.51
2023-08-15T17:02:52.007Z,24.42
2023-08-15T17:04:53.702Z,24.39
2023-08-15T17:06:55.298Z,24.48
2023-08-15T17:08:57.056Z,24.43
2023-08-15T17:10:58.591Z,24.52
2023-08-15T17:13:00.386Z,24.55
2023-08-15T17:15:02.372Z,24.45
2023-08-15T17:17:05.667Z,24.52
2023-08-15T17:19:07.316Z,24.56
2023-08-15T17:21:09.174Z,24.50
2023-08-15T17:23:10.774Z,24.48
2023-08-15T17:25:12.562Z,24.33
2023-08-15T17:27:14.176Z,24.30
2023-08-15T17:29:15.792Z,24.31
2023-08-15T17:31:17.951Z,24.41
2023-08-15T17:33:19.496Z,24.44
2023-08-15T17:35:21.162Z,24.23
2023-08-15T17:37:22.958Z,24.22
2023-08-15T17:39:24.520Z,24.31
2023-08-15T17:41:26.273Z,24.29
2023-08-15T17:43:27.850Z,24.34
2023-08-15T17:45:29.432Z,24.16
2023-08-15T17:47:31.049Z,24.23
2023-08-15T17:49:32.854Z,24.13
2023-08-15T17:51:36.452Z,24.10
2023-08-15T17:53:38.703Z,24.06
2023-08-15T17:55:40.245Z,24.03
2023-08-15T17:57:42.086Z,23.98
2023-08-15T17:59:43.636Z,23.84
2023-08-15T18:01:45.229Z,23.82
2023-08-15T18:03:48.748Z,23.85
2023-08-15T18:05:50.492Z,23.81
2023-08-15T18:07:52.362Z,23.86
2023-08-15T18:09:54.053Z,23.75
2023-08-15T18:11:55.905Z,23.59
2023-08-15T18:13:57.967Z,23.47
2023-08-15T18:15:59.806Z,23.56
2023-08-15T18:18:01.347Z,23.61
2023-08-15T18:20:03.202Z,23.60
2023-08-15T18:22:06.896Z,23.60
2023-08-15T18:24:11.839Z,23.54
2023-08-15T18:26:13.579Z,23.53
2023-08-15T18:28:15.102Z,23.46
2023-08-15T18:30:16.671Z,23.41
2023-08-15T18:32:18.442Z,23.35
2023-08-15T18:34:20.057Z,23.33
2023-08-15T18:36:21.713Z,23.26
2023-08-15T18:38:23.304Z,23.25
2023-08-15T18:40:25.201Z,23.29
2023-08-15T18:42:26.774Z,23.23
2023-08-15T18:44:28.376Z,23.23
2023-08-15T18:46:29.950Z,23.13
2023-08-15T18:48:32.418Z,23.03
2023-08-15T18:50:34.002Z,23.06
2023-08-15T18:52:35.640Z,22.92
2023-08-15T18:54:37.254Z,22.77
2023-08-15T18:56:38.904Z,22.75
2023-08-15T18:58:42.718Z,22.62
2023-08-15T19:00:44.440Z,22.48
2023-08-15T19:02:46.092Z,22.16
2023-08-15T19:04:47.699Z,22.07
2023-08-15T19:06:49.315Z,22.01
2023-08-15T19:08:51.144Z,22.07
2023-08-15T19:10:52.920Z,22.06
2023-08-15T19:12:54.492Z,22.02
2023-08-15T19:14:57.544Z,22.06
2023-08-15T19:16:59.104Z,21.84
2023-08-15T19:19:03.914Z,21.86
2023-08-15T19:21:05.481Z,21.77
2023-08-15T19:23:07.470Z,21.69
2023-08-15T19:25:09.290Z,21.65
2023-08-15T19:27:10.901Z,21.64
2023-08-15T19:29:12.567Z,21.50
2023-08-15T19:31:14.200Z,21.48
2023-08-15T19:33:15.799Z,21.36
2023-08-15T19:35:17.678Z,21.32
2023-08-15T19:37:31.078Z,21.27
2023-08-15T19:39:38.367Z,21.22
2023-08-15T19:41:39.975Z,21.08
2023-08-15T19:43:41.793Z,20.96
2023-08-15T19:45:43.751Z,20.90
2023-08-15T19:47:45.929Z,20.94
2023-08-15T19:49:47.578Z,20.89
2023-08-15T19:51:49.352Z,20.79
2023-08-15T19:53:51.265Z,20.81
2023-08-15T19:55:53.143Z,20.74
2023-08-15T19:57:54.785Z,20.69
2023-08-15T19:59:56.432Z,20.69
2023-08-15T20:01:57.982Z,20.55
2023-08-15T20:03:59.569Z,20.31
2023-08-15T20:06:01.450Z,20.28
2023-08-15T20:08:03.709Z,20.28
2023-08-15T20:10:11.447Z,20.29
2023-08-15T20:12:13.621Z,20.15
2023-08-15T20:14:18.367Z,20.23
2023-08-15T20:16:19.988Z,20.20
2023-08-15T20:18:21.772Z,20.13
2023-08-15T20:20:23.474Z,20.12
2023-08-15T20:22:25.264Z,20.14
2023-08-15T20:24:27.643Z,20.09
2023-08-15T20:26:29.324Z,20.06
2023-08-15T20:28:30.945Z,19.96
2023-08-15T20:30:32.751Z,19.97
2023-08-15T20:32:34.481Z,19.98
2023-08-15T20:34:36.169Z,19.97
2023-08-15T20:36:37.719Z,19.95
2023-08-15T20:38:39.290Z,19.96
2023-08-15T20:40:41.540Z,19.87
2023-08-15T20:42:43.119Z,19.80
2023-08-15T20:44:44.773Z,19.87
2023-08-15T20:46:46.606Z,19.81
2023-08-15T20:48:48.407Z,19.62
2023-08-15T20:50:50.037Z,19.65
2023-08-15T20:52:54.578Z,19.59
2023-08-15T20:54:56.206Z,19.65
2023-08-15T20:56:58.165Z,19.63
2023-08-15T20:59:00.083Z,19.66
2023-08-15T21:01:01.782Z,19.68
2023-08-15T21:03:03.624Z,19.59
2023-08-15T21:05:05.876Z,19.58
2023-08-15T21:07:07.806Z,19.49
2023-08-15T21:09:09.671Z,19.45
2023-08-15T21:11:11.219Z,19.40
2023-08-15T21:13:12.821Z,19.39
2023-08-15T21:15:14.477Z,19.38
2023-08-15T21:17:17.460Z,19.29
2023-08-15T21:19:19.351Z,19.12
2023-08-15T21:21:20.949Z,19.13
2023-08-15T21:23:22.748Z,19.11
2023-08-15T21:25:24.296Z,19.10
2023-08-15T21:27:25.916Z,18.87
2023-08-15T21:29:27.522Z,18.74
2023-08-15T21:31:29.913Z,18.78
2023-08-15T21:33:31.552Z,18.61
2023-08-15T21:35:34.306Z,18.81
2023-08-15T21:37:36.184Z,18.82
2023-08-15T21:39:38.031Z,18.90
2023-08-15T21:41:39.603Z,18.94
2023-08-15T21:43:41.234Z,18.91
2023-08-15T21:45:43.489Z,18.94
2023-08-15T21:47:45.127Z,18.83
2023-08-15T21:49:46.893Z,18.89
2023-08-15T21:51:48.480Z,18.86
2023-08-15T21:53:50.033Z,18.74
2023-08-15T21:55:51.551Z,18.80
2023-08-15T21:57:54.037Z,18.68
2023-08-15T21:59:55.697Z,18.74
2023-08-15T22:01:57.416Z,18.75
2023-08-15T22:03:59.070Z,18.69
2023-08-15T22:06:00.685Z,18.58
2023-08-15T22:08:02.314Z,18.58
2023-08-15T22:10:04.454Z,18.62
2023-08-15T22:12:06.139Z,18.64
2023-08-15T22:14:07.843Z,18.67
2023-08-15T22:16:09.574Z,18.58
2023-08-15T22:18:19.468Z,18.51
2023-08-15T22:20:22.467Z,18.46
2023-08-15T22:22:24.079Z,18.45
2023-08-15T22:24:25.697Z,18.35
2023-08-15T22:26:27.337Z,18.35
2023-08-15T22:28:29.333Z,18.33
2023-08-15T22:30:31.280Z,18.35
2023-08-15T22:32:33.756Z,18.34
2023-08-15T22:34:35.409Z,18.35
2023-08-15T22:36:37.240Z,18.36
2023-08-15T22:38:38.839Z,18.36
2023-08-15T22:40:40.378Z,18.23
2023-08-15T22:42:41.991Z,18.05
2023-08-15T22:44:43.611Z,18.00
2023-08-15T22:46:45.174Z,18.01
2023-08-15T22:48:47.104Z,18.02
2023-08-15T22:50:48.714Z,18.12
2023-08-15T22:52:50.285Z,18.08
2023-08-15T22:54:51.884Z,18.14
2023-08-15T22:56:53.511Z,18.25
2023-08-15T22:58:55.374Z,18.27
2023-08-15T23:00:58.352Z,18.33
2023-08-15T23:03:00.030Z,18.27
2023-08-15T23:05:01.768Z,18.23
2023-08-15T23:07:03.393Z,18.20
2023-08-15T23:09:05.185Z,18.10
2023-08-15T23:11:06.822Z,18.20
2023-08-15T23:13:08.479Z,18.13
2023-08-15T23:15:10.257Z,18.05
2023-08-15T23:17:12.089Z,18.04
2023-08-15T23:19:13.602Z,18.05
2023-08-15T23:21:15.160Z,18.03
2023-08-15T23:23:16.706Z,17.99
2023-08-15T23:25:18.286Z,17.98
2023-08-15T23:27:20.388Z,17.93
2023-08-15T23:29:21.873Z,17.96
2023-08-15T23:31:33.203Z,17.75
2023-08-15T23:33:34.930Z,17.52
2023-08-15T23:35:36.560Z,17.70
2023-08-15T23:37:39.733Z,17.75
2023-08-15T23:39:41.554Z,17.84
2023-08-15T23:41:43.548Z,17.84
2023-08-15T23:43:45.091Z,17.75
2023-08-15T23:45:51.066Z,17.72
2023-08-15T23:47:52.849Z,17.68
2023-08-15T23:49:54.673Z,17.74
2023-08-15T23:51:56.220Z,17.74
2023-08-15T23:53:57.939Z,17.72
2023-08-15T23:55:59.508Z,17.73
2023-08-15T23:58:01.032Z,17.73
